createdAt,value
2023-06-07T00:00:31.042Z,95221.00
2023-06-07T00:01:31.051Z,95221.00
2023-06-07T00:02:42.886Z,95215.00
2023-06-07T00:03:31.173Z,95219.00
2023-06-07T00:04:31.117Z,95221.00
2023-06-07T00:05:31.052Z,95219.00
2023-06-07T00:06:31.061Z,95219.00
2023-06-07T00:07:31.051Z,95219.00
2023-06-07T00:08:31.056Z,95221.00
2023-06-07T00:09:31.067Z,95223.00
2023-06-07T00:10:31.071Z,95225.00
2023-06-07T00:11:31.060Z,95221.00
2023-06-07T00:12:31.160Z,95221.00
2023-06-07T00:13:31.044Z,95221.00
2023-06-07T00:14:31.043Z,95219.00
2023-06-07T00:15:31.036Z,95221.00
2023-06-07T00:16:31.052Z,95223.00
2023-06-07T00:17:31.117Z,95221.00
2023-06-07T00:18:31.048Z,95221.00
2023-06-07T00:19:31.110Z,95221.00
2023-06-07T00:20:31.041Z,95221.00
2023-06-07T00:21:31.047Z,95223.00
2023-06-07T00:22:31.037Z,95219.00
2023-06-07T00:23:31.054Z,95221.00
2023-06-07T00:24:31.074Z,95219.00
2023-06-07T00:25:31.017Z,95221.00
2023-06-07T00:26:31.022Z,95219.00
2023-06-07T00:27:31.021Z,95221.00
2023-06-07T00:28:31.041Z,95217.00
2023-06-07T00:29:31.027Z,95217.00
2023-06-07T00:30:31.017Z,95217.00
2023-06-07T00:31:31.143Z,95217.00
2023-06-07T00:32:31.063Z,95217.00
2023-06-07T00:33:31.064Z,95214.00
2023-06-07T00:34:31.122Z,95214.00
2023-06-07T00:35:31.166Z,95215.00
2023-06-07T00:36:31.563Z,95217.00
2023-06-07T00:37:31.626Z,95217.00
2023-06-07T00:38:31.599Z,95219.00
2023-06-07T00:39:31.605Z,95219.00
2023-06-07T00:40:31.617Z,95225.00
2023-06-07T00:41:31.648Z,95225.00
2023-06-07T00:42:31.603Z,95225.00
2023-06-07T00:43:31.594Z,95223.00
2023-06-07T00:44:31.632Z,95223.00
2023-06-07T00:45:31.591Z,95223.00
2023-06-07T00:46:31.656Z,95221.00
2023-06-07T00:47:31.782Z,95221.00
2023-06-07T00:48:31.828Z,95219.00
2023-06-07T00:49:31.732Z,95219.00
2023-06-07T00:50:31.791Z,95217.00
2023-06-07T00:51:31.844Z,95217.00
2023-06-07T00:52:31.870Z,95215.00
2023-06-07T00:53:31.916Z,95217.00
2023-06-07T00:54:31.949Z,95215.00
2023-06-07T00:55:31.989Z,95217.00
2023-06-07T00:56:32.032Z,95219.00
2023-06-07T00:57:32.060Z,95217.00
2023-06-07T00:58:32.114Z,95217.00
2023-06-07T00:59:32.153Z,95221.00
2023-06-07T01:00:32.211Z,95215.00
2023-06-07T01:01:32.274Z,95215.00
2023-06-07T01:02:32.272Z,95214.00
2023-06-07T01:03:32.572Z,95212.00
2023-06-07T01:04:32.350Z,95210.00
2023-06-07T01:05:32.450Z,95210.00
2023-06-07T01:06:32.447Z,95210.00
2023-06-07T01:07:32.499Z,95210.00
2023-06-07T01:08:32.539Z,95208.00
2023-06-07T01:09:32.580Z,95208.00
2023-06-07T01:10:32.636Z,95210.00
2023-06-07T01:11:32.662Z,95210.00
2023-06-07T01:12:32.706Z,95210.00
2023-06-07T01:13:32.758Z,95212.00
2023-06-07T01:14:32.799Z,95210.00
2023-06-07T01:15:32.839Z,95206.00
2023-06-07T01:16:32.959Z,95212.00
2023-06-07T01:17:32.964Z,95212.00
2023-06-07T01:18:32.982Z,95208.00
2023-06-07T01:19:33.025Z,95206.00
2023-06-07T01:20:33.076Z,95206.00
2023-06-07T01:21:33.129Z,95206.00
2023-06-07T01:22:33.162Z,95206.00
2023-06-07T01:23:33.223Z,95204.00
2023-06-07T01:24:33.260Z,95204.00
2023-06-07T01:25:33.315Z,95202.00
2023-06-07T01:26:33.340Z,95202.00
2023-06-07T01:27:33.397Z,95202.00
2023-06-07T01:28:33.423Z,95202.00
2023-06-07T01:29:33.569Z,95200.00
2023-06-07T01:30:33.513Z,95198.00
2023-06-07T01:31:33.597Z,95202.00
2023-06-07T01:32:33.636Z,95202.00
2023-06-07T01:33:33.656Z,95204.00
2023-06-07T01:34:33.707Z,95202.00
2023-06-07T01:35:33.840Z,95200.00
2023-06-07T01:36:33.811Z,95198.00
2023-06-07T01:37:33.846Z,95196.00
2023-06-07T01:38:33.893Z,95194.00
2023-06-07T01:39:33.944Z,95194.00
2023-06-07T01:40:33.989Z,95194.00
2023-06-07T01:41:34.042Z,95194.00
2023-06-07T01:42:34.087Z,95192.00
2023-06-07T01:43:34.126Z,95194.00
2023-06-07T01:44:34.176Z,95194.00
2023-06-07T01:45:34.220Z,95198.00
2023-06-07T01:46:34.809Z,95196.00
2023-06-07T01:47:34.712Z,95196.00
2023-06-07T01:48:34.674Z,95202.00
2023-06-07T01:49:34.646Z,95194.00
2023-06-07T01:50:34.658Z,95200.00
2023-06-07T01:51:34.666Z,95204.00
2023-06-07T01:52:34.648Z,95198.00
2023-06-07T01:53:34.652Z,95202.00
2023-06-07T01:54:34.651Z,95204.00
2023-06-07T01:55:34.725Z,95204.00
2023-06-07T01:56:34.738Z,95202.00
2023-06-07T01:57:34.793Z,95202.00
2023-06-07T01:58:34.832Z,95202.00
2023-06-07T01:59:34.889Z,95204.00
2023-06-07T02:00:34.931Z,95204.00
2023-06-07T02:01:35.025Z,95202.00
2023-06-07T02:02:35.071Z,95204.00
2023-06-07T02:03:35.136Z,95208.00
2023-06-07T02:04:35.158Z,95210.00
2023-06-07T02:05:35.194Z,95206.00
2023-06-07T02:06:35.224Z,95206.00
2023-06-07T02:07:35.275Z,95206.00
2023-06-07T02:08:35.328Z,95204.00
2023-06-07T02:09:35.362Z,95204.00
2023-06-07T02:10:35.426Z,95204.00
2023-06-07T02:11:35.466Z,95208.00
2023-06-07T02:12:35.507Z,95208.00
2023-06-07T02:13:35.551Z,95206.00
2023-06-07T02:14:35.598Z,95204.00
2023-06-07T02:15:35.652Z,95204.00
2023-06-07T02:16:35.749Z,95206.00
2023-06-07T02:17:35.832Z,95206.00
2023-06-07T02:18:35.791Z,95204.00
2023-06-07T02:19:35.835Z,95204.00
2023-06-07T02:20:36.104Z,95206.00
2023-06-07T02:21:35.950Z,95206.00
2023-06-07T02:22:35.991Z,95206.00
2023-06-07T02:23:36.087Z,95206.00
2023-06-07T02:24:36.095Z,95210.00
2023-06-07T02:25:36.155Z,95210.00
2023-06-07T02:26:36.232Z,95210.00
2023-06-07T02:27:36.244Z,95212.00
2023-06-07T02:28:36.297Z,95212.00
2023-06-07T02:29:36.347Z,95214.00
2023-06-07T02:30:36.410Z,95215.00
2023-06-07T02:31:36.497Z,95215.00
2023-06-07T02:32:36.540Z,95215.00
2023-06-07T02:33:36.563Z,95217.00
2023-06-07T02:34:36.649Z,95217.00
2023-06-07T02:35:36.783Z,95215.00
2023-06-07T02:36:36.789Z,95217.00
2023-06-07T02:37:36.784Z,95219.00
2023-06-07T02:38:36.842Z,95221.00
2023-06-07T02:39:36.883Z,95221.00
2023-06-07T02:40:36.933Z,95221.00
2023-06-07T02:41:36.999Z,95221.00
2023-06-07T02:42:37.057Z,95219.00
2023-06-07T02:43:37.099Z,95223.00
2023-06-07T02:44:37.148Z,95223.00
2023-06-07T02:45:37.207Z,95221.00
2023-06-07T02:46:37.695Z,95223.00
2023-06-07T02:47:37.693Z,95223.00
2023-06-07T02:48:37.661Z,95221.00
2023-06-07T02:49:37.656Z,95221.00
2023-06-07T02:50:37.651Z,95225.00
2023-06-07T02:51:37.654Z,95225.00
2023-06-07T02:52:37.681Z,95223.00
2023-06-07T02:53:37.712Z,95223.00
2023-06-07T02:54:37.666Z,95225.00
2023-06-07T02:55:37.709Z,95225.00
2023-06-07T02:56:37.786Z,95225.00
2023-06-07T02:57:37.820Z,95223.00
2023-06-07T02:58:37.868Z,95223.00
2023-06-07T02:59:37.925Z,95223.00
2023-06-07T03:00:37.993Z,95225.00
2023-06-07T03:01:38.095Z,95225.00
2023-06-07T03:02:38.148Z,95223.00
2023-06-07T03:03:38.174Z,95227.00
2023-06-07T03:04:38.981Z,95225.00
2023-06-07T03:05:38.211Z,95227.00
2023-06-07T03:06:38.264Z,95229.00
2023-06-07T03:07:38.328Z,95229.00
2023-06-07T03:08:38.390Z,95229.00
2023-06-07T03:09:38.408Z,95231.00
2023-06-07T03:10:38.476Z,95233.00
2023-06-07T03:11:38.527Z,95237.00
2023-06-07T03:12:38.594Z,95237.00
2023-06-07T03:13:38.612Z,95237.00
2023-06-07T03:14:38.672Z,95235.00
2023-06-07T03:15:38.725Z,95241.00
2023-06-07T03:16:38.826Z,95241.00
2023-06-07T03:17:38.847Z,95239.00
2023-06-07T03:18:38.895Z,95239.00
2023-06-07T03:19:38.937Z,95241.00
2023-06-07T03:20:38.990Z,95239.00
2023-06-07T03:21:39.054Z,95239.00
2023-06-07T03:22:39.099Z,95239.00
2023-06-07T03:23:39.177Z,95241.00
2023-06-07T03:24:39.259Z,95241.00
2023-06-07T03:25:39.285Z,95243.00
2023-06-07T03:26:39.324Z,95245.00
2023-06-07T03:27:39.382Z,95243.00
2023-06-07T03:28:39.429Z,95247.00
2023-06-07T03:29:39.477Z,95249.00
2023-06-07T03:30:39.546Z,95249.00
2023-06-07T03:31:39.596Z,95249.00
2023-06-07T03:32:39.662Z,95249.00
2023-06-07T03:33:39.710Z,95251.00
2023-06-07T03:34:39.745Z,95251.00
2023-06-07T03:35:39.792Z,95249.00
2023-06-07T03:36:39.837Z,95247.00
2023-06-07T03:37:39.901Z,95253.00
2023-06-07T03:38:39.940Z,95251.00
2023-06-07T03:39:39.994Z,95251.00
2023-06-07T03:40:40.071Z,95253.00
2023-06-07T03:41:40.112Z,95255.00
2023-06-07T03:42:40.152Z,95253.00
2023-06-07T03:43:40.215Z,95257.00
2023-06-07T03:44:40.282Z,95257.00
2023-06-07T03:45:40.337Z,95255.00
2023-06-07T03:46:40.584Z,95257.00
2023-06-07T03:47:40.632Z,95259.00
2023-06-07T03:48:40.611Z,95259.00
2023-06-07T03:49:40.579Z,95257.00
2023-06-07T03:50:40.620Z,95257.00
2023-06-07T03:51:40.672Z,95259.00
2023-06-07T03:52:40.736Z,95255.00
2023-06-07T03:53:40.790Z,95257.00
2023-06-07T03:54:40.860Z,95255.00
2023-06-07T03:55:40.895Z,95257.00
2023-06-07T03:56:40.984Z,95255.00
2023-06-07T03:57:41.022Z,95257.00
2023-06-07T03:58:41.066Z,95259.00
2023-06-07T03:59:41.143Z,95259.00
2023-06-07T04:00:41.181Z,95259.00
2023-06-07T04:01:41.232Z,95261.00
2023-06-07T04:02:41.734Z,95259.00
2023-06-07T04:03:41.884Z,95261.00
2023-06-07T04:04:41.713Z,95261.00
2023-06-07T04:05:41.656Z,95261.00
2023-06-07T04:06:41.662Z,95261.00
2023-06-07T04:07:41.653Z,95259.00
2023-06-07T04:08:41.669Z,95261.00
2023-06-07T04:09:41.668Z,95261.00
2023-06-07T04:10:41.711Z,95263.00
2023-06-07T04:11:41.769Z,95265.00
2023-06-07T04:12:41.853Z,95267.00
2023-06-07T04:13:41.884Z,95265.00
2023-06-07T04:14:41.939Z,95265.00
2023-06-07T04:15:41.980Z,95265.00
2023-06-07T04:16:42.051Z,95265.00
2023-06-07T04:17:42.185Z,95263.00
2023-06-07T04:18:42.147Z,95265.00
2023-06-07T04:19:50.904Z,95263.00
2023-06-07T04:20:42.205Z,95265.00
2023-06-07T04:21:42.213Z,95263.00
2023-06-07T04:22:42.214Z,95265.00
2023-06-07T04:23:42.261Z,95265.00
2023-06-07T04:24:42.231Z,95263.00
2023-06-07T04:25:42.246Z,95265.00
2023-06-07T04:26:42.259Z,95265.00
2023-06-07T04:27:42.257Z,95267.00
2023-06-07T04:28:42.305Z,95265.00
2023-06-07T04:29:42.282Z,95269.00
2023-06-07T04:30:42.278Z,95265.00
2023-06-07T04:31:43.441Z,95267.00
2023-06-07T04:32:42.373Z,95269.00
2023-06-07T04:33:42.395Z,95267.00
2023-06-07T04:34:42.452Z,95267.00
2023-06-07T04:35:42.523Z,95269.00
2023-06-07T04:36:42.568Z,95270.00
2023-06-07T04:37:42.628Z,95267.00
2023-06-07T04:38:54.030Z,95267.00
2023-06-07T04:39:42.703Z,95269.00
2023-06-07T04:40:42.707Z,95270.00
2023-06-07T04:41:42.716Z,95269.00
2023-06-07T04:42:42.717Z,95269.00
2023-06-07T04:43:42.772Z,95269.00
2023-06-07T04:44:42.760Z,95270.00
2023-06-07T04:45:42.806Z,95274.00
2023-06-07T04:46:42.761Z,95276.00
2023-06-07T04:47:42.814Z,95276.00
2023-06-07T04:48:43.124Z,95276.00
2023-06-07T04:49:42.778Z,95276.00
2023-06-07T04:50:42.798Z,95274.00
2023-06-07T04:51:42.800Z,95274.00
2023-06-07T04:52:42.796Z,95278.00
2023-06-07T04:53:42.804Z,95274.00
2023-06-07T04:54:42.830Z,95276.00
2023-06-07T04:55:42.847Z,95272.00
2023-06-07T04:56:42.831Z,95274.00
2023-06-07T04:57:42.834Z,95274.00
2023-06-07T04:58:42.832Z,95274.00
2023-06-07T04:59:42.887Z,95274.00
2023-06-07T05:00:42.870Z,95274.00
2023-06-07T05:01:42.858Z,95274.00
2023-06-07T05:02:42.922Z,95272.00
2023-06-07T05:03:43.963Z,95272.00
2023-06-07T05:04:42.861Z,95270.00
2023-06-07T05:05:43.081Z,95270.00
2023-06-07T05:06:42.893Z,95269.00
2023-06-07T05:07:42.936Z,95270.00
2023-06-07T05:08:42.990Z,95270.00
2023-06-07T05:09:43.067Z,95269.00
2023-06-07T05:10:43.096Z,95269.00
2023-06-07T05:11:43.173Z,95269.00
2023-06-07T05:12:43.209Z,95269.00
2023-06-07T05:13:43.260Z,95269.00
2023-06-07T05:14:43.312Z,95270.00
2023-06-07T05:15:43.555Z,95269.00
2023-06-07T05:16:44.591Z,95269.00
2023-06-07T05:17:43.432Z,95269.00
2023-06-07T05:18:43.420Z,95270.00
2023-06-07T05:19:43.448Z,95272.00
2023-06-07T05:20:43.438Z,95270.00
2023-06-07T05:21:43.547Z,95272.00
2023-06-07T05:22:43.482Z,95270.00
2023-06-07T05:23:43.472Z,95270.00
2023-06-07T05:24:43.443Z,95272.00
2023-06-07T05:25:43.453Z,95272.00
2023-06-07T05:26:43.565Z,95270.00
2023-06-07T05:27:43.494Z,95272.00
2023-06-07T05:28:43.563Z,95270.00
2023-06-07T05:29:43.467Z,95270.00
2023-06-07T05:30:43.470Z,95270.00
2023-06-07T05:31:43.629Z,95272.00
2023-06-07T05:32:43.607Z,95272.00
2023-06-07T05:33:43.547Z,95270.00
2023-06-07T05:34:43.466Z,95269.00
2023-06-07T05:35:43.569Z,95274.00
2023-06-07T05:36:43.508Z,95270.00
2023-06-07T05:37:43.467Z,95272.00
2023-06-07T05:38:43.463Z,95272.00
2023-06-07T05:39:43.471Z,95272.00
2023-06-07T05:40:43.683Z,95272.00
2023-06-07T05:41:43.465Z,95272.00
2023-06-07T05:42:43.499Z,95274.00
2023-06-07T05:43:43.670Z,95272.00
2023-06-07T05:44:43.574Z,95270.00
2023-06-07T05:45:43.610Z,95270.00
2023-06-07T05:46:44.119Z,95272.00
2023-06-07T05:47:43.695Z,95270.00
2023-06-07T05:48:43.708Z,95269.00
2023-06-07T05:49:43.712Z,95267.00
2023-06-07T05:50:43.822Z,95267.00
2023-06-07T05:51:44.063Z,95269.00
2023-06-07T05:52:59.678Z,95270.00
2023-06-07T05:53:44.790Z,95270.00
2023-06-07T05:54:59.386Z,95267.00
2023-06-07T05:55:51.178Z,95269.00
2023-06-07T05:56:44.051Z,95265.00
2023-06-07T05:57:51.448Z,95267.00
2023-06-07T05:58:59.663Z,95265.00
2023-06-07T05:59:59.362Z,95263.00
2023-06-07T06:00:46.976Z,95265.00
2023-06-07T06:01:59.764Z,95265.00
2023-06-07T06:04:51.180Z,95269.00
2023-06-07T06:05:46.907Z,95270.00
2023-06-07T06:06:43.714Z,95270.00
2023-06-07T06:07:43.713Z,95269.00
2023-06-07T06:08:43.713Z,95269.00
2023-06-07T06:09:43.708Z,95269.00
2023-06-07T06:10:43.693Z,95269.00
2023-06-07T06:11:44.056Z,95269.00
2023-06-07T06:12:43.685Z,95269.00
2023-06-07T06:13:43.704Z,95267.00
2023-06-07T06:14:43.676Z,95269.00
2023-06-07T06:15:43.671Z,95269.00
2023-06-07T06:16:44.146Z,95267.00
2023-06-07T06:17:43.759Z,95265.00
2023-06-07T06:18:43.716Z,95265.00
2023-06-07T06:19:43.678Z,95263.00
2023-06-07T06:20:43.687Z,95263.00
2023-06-07T06:21:46.863Z,95261.00
2023-06-07T06:22:43.673Z,95263.00
2023-06-07T06:23:43.706Z,95263.00
2023-06-07T06:24:43.659Z,95263.00
2023-06-07T06:25:44.558Z,95261.00
2023-06-07T06:26:43.678Z,95257.00
2023-06-07T06:27:43.775Z,95257.00
2023-06-07T06:28:43.662Z,95257.00
2023-06-07T06:29:43.661Z,95257.00
2023-06-07T06:30:43.811Z,95255.00
2023-06-07T06:31:44.065Z,95255.00
2023-06-07T06:32:43.727Z,95255.00
2023-06-07T06:33:44.696Z,95257.00
2023-06-07T06:34:43.664Z,95255.00
2023-06-07T06:35:43.660Z,95257.00
2023-06-07T06:36:45.360Z,95257.00
2023-06-07T06:37:43.650Z,95259.00
2023-06-07T06:38:43.682Z,95255.00
2023-06-07T06:39:43.664Z,95257.00
2023-06-07T06:40:43.654Z,95257.00
2023-06-07T06:41:44.063Z,95257.00
2023-06-07T06:42:43.645Z,95257.00
2023-06-07T06:43:44.078Z,95259.00
2023-06-07T06:44:46.840Z,95259.00
2023-06-07T06:45:51.094Z,95257.00
2023-06-07T06:46:44.125Z,95257.00
2023-06-07T06:47:43.713Z,95257.00
2023-06-07T06:48:48.275Z,95257.00
2023-06-07T06:50:43.648Z,95257.00
2023-06-07T06:51:45.868Z,95253.00
2023-06-07T06:52:43.735Z,95253.00
2023-06-07T06:53:43.654Z,95253.00
2023-06-07T06:54:43.845Z,95251.00
2023-06-07T06:55:43.659Z,95255.00
2023-06-07T06:56:43.685Z,95251.00
2023-06-07T06:57:43.645Z,95251.00
2023-06-07T06:58:43.668Z,95251.00
2023-06-07T06:59:43.657Z,95249.00
2023-06-07T07:00:43.725Z,95249.00
2023-06-07T07:01:44.135Z,95245.00
2023-06-07T07:02:43.706Z,95249.00
2023-06-07T07:03:43.763Z,95245.00
2023-06-07T07:04:43.655Z,95245.00
2023-06-07T07:05:43.693Z,95245.00
2023-06-07T07:06:44.092Z,95243.00
2023-06-07T07:07:43.672Z,95245.00
2023-06-07T07:08:43.776Z,95243.00
2023-06-07T07:09:43.871Z,95243.00
2023-06-07T07:10:43.674Z,95245.00
2023-06-07T07:11:44.090Z,95245.00
2023-06-07T07:12:43.705Z,95247.00
2023-06-07T07:13:43.654Z,95249.00
2023-06-07T07:14:43.621Z,95247.00
2023-06-07T07:15:43.638Z,95245.00
2023-06-07T07:16:43.932Z,95245.00
2023-06-07T07:17:43.701Z,95245.00
2023-06-07T07:18:43.624Z,95247.00
2023-06-07T07:19:51.492Z,95247.00
2023-06-07T07:20:43.611Z,95243.00
2023-06-07T07:21:43.600Z,95241.00
2023-06-07T07:22:43.596Z,95241.00
2023-06-07T07:23:43.647Z,95239.00
2023-06-07T07:24:43.692Z,95237.00
2023-06-07T07:25:43.578Z,95237.00
2023-06-07T07:26:43.540Z,95237.00
2023-06-07T07:27:43.563Z,95233.00
2023-06-07T07:28:43.655Z,95231.00
2023-06-07T07:29:43.531Z,95233.00
2023-06-07T07:30:43.645Z,95231.00
2023-06-07T07:31:43.606Z,95229.00
2023-06-07T07:32:44.595Z,95227.00
2023-06-07T07:33:43.533Z,95227.00
2023-06-07T07:34:44.608Z,95229.00
2023-06-07T07:35:46.820Z,95227.00
2023-06-07T07:36:43.482Z,95221.00
2023-06-07T07:37:43.445Z,95223.00
2023-06-07T07:38:44.086Z,95219.00
2023-06-07T07:39:43.728Z,95219.00
2023-06-07T07:40:43.636Z,95219.00
2023-06-07T07:41:43.521Z,95221.00
2023-06-07T07:42:44.423Z,95219.00
2023-06-07T07:43:43.630Z,95219.00
2023-06-07T07:44:43.362Z,95219.00
2023-06-07T07:45:44.641Z,95215.00
2023-06-07T07:46:43.338Z,95217.00
2023-06-07T07:47:46.591Z,95217.00
2023-06-07T07:48:50.708Z,95217.00
2023-06-07T07:49:43.653Z,95217.00
2023-06-07T07:50:43.619Z,95215.00
2023-06-07T07:51:44.600Z,95215.00
2023-06-07T07:52:43.244Z,95210.00
2023-06-07T07:53:43.217Z,95212.00
2023-06-07T07:54:43.214Z,95210.00
2023-06-07T07:55:43.657Z,95208.00
2023-06-07T07:56:59.276Z,95200.00
2023-06-07T07:59:43.147Z,95204.00
2023-06-07T08:00:43.123Z,95200.00
2023-06-07T08:01:44.219Z,95200.00
2023-06-07T08:02:42.610Z,95200.00
2023-06-07T08:03:46.530Z,95196.00
2023-06-07T08:04:50.613Z,95194.00
2023-06-07T08:05:43.056Z,95192.00
2023-06-07T08:06:43.057Z,95192.00
2023-06-07T08:07:43.025Z,95190.00
2023-06-07T08:08:42.990Z,95190.00
2023-06-07T08:09:42.982Z,95192.00
2023-06-07T08:10:42.968Z,95192.00
2023-06-07T08:11:43.157Z,95190.00
2023-06-07T08:12:42.955Z,95190.00
2023-06-07T08:13:42.922Z,95192.00
2023-06-07T08:14:43.109Z,95190.00
2023-06-07T08:15:42.887Z,95190.00
2023-06-07T08:16:43.155Z,95188.00
2023-06-07T08:17:42.842Z,95188.00
2023-06-07T08:18:42.833Z,95188.00
2023-06-07T08:19:43.108Z,95186.00
2023-06-07T08:20:42.786Z,95186.00
2023-06-07T08:21:42.773Z,95186.00
2023-06-07T08:22:42.761Z,95184.00
2023-06-07T08:23:43.166Z,95184.00
2023-06-07T08:24:42.700Z,95184.00
2023-06-07T08:25:42.761Z,95184.00
2023-06-07T08:26:42.760Z,95182.00
2023-06-07T08:27:42.759Z,95184.00
2023-06-07T08:28:42.896Z,95182.00
2023-06-07T08:29:42.718Z,95184.00
2023-06-07T08:30:42.713Z,95182.00
2023-06-07T08:31:42.680Z,95178.00
2023-06-07T08:32:42.571Z,95180.00
2023-06-07T08:33:42.569Z,95180.00
2023-06-07T08:34:42.519Z,95178.00
2023-06-07T08:35:42.501Z,95176.00
2023-06-07T08:36:42.481Z,95175.00
2023-06-07T08:37:42.768Z,95171.00
2023-06-07T08:38:43.146Z,95175.00
2023-06-07T08:39:42.719Z,95173.00
2023-06-07T08:40:42.658Z,95175.00
2023-06-07T08:41:42.613Z,95171.00
2023-06-07T08:42:42.372Z,95175.00
2023-06-07T08:44:14.481Z,95175.00
2023-06-07T08:44:42.337Z,95173.00
2023-06-07T08:45:42.843Z,95171.00
2023-06-07T08:46:42.294Z,95171.00
2023-06-07T08:47:42.297Z,95171.00
2023-06-07T08:48:42.623Z,95171.00
2023-06-07T08:49:42.210Z,95173.00
2023-06-07T08:50:42.194Z,95169.00
2023-06-07T08:51:42.169Z,95167.00
2023-06-07T08:52:42.166Z,95165.00
2023-06-07T08:53:42.139Z,95169.00
2023-06-07T08:54:42.134Z,95167.00
2023-06-07T08:55:42.068Z,95167.00
2023-06-07T08:56:42.094Z,95167.00
2023-06-07T08:57:42.026Z,95169.00
2023-06-07T08:58:42.003Z,95163.00
2023-06-07T08:59:42.515Z,95163.00
2023-06-07T09:00:41.969Z,95163.00
2023-06-07T09:01:42.833Z,95161.00
2023-06-07T09:02:45.142Z,95163.00
2023-06-07T09:03:42.208Z,95161.00
2023-06-07T09:04:41.874Z,95161.00
2023-06-07T09:05:41.870Z,95163.00
2023-06-07T09:06:42.117Z,95161.00
2023-06-07T09:07:41.826Z,95161.00
2023-06-07T09:08:42.124Z,95161.00
2023-06-07T09:09:41.771Z,95153.00
2023-06-07T09:10:41.757Z,95153.00
2023-06-07T09:11:42.126Z,95153.00
2023-06-07T09:12:41.723Z,95149.00
2023-06-07T09:13:41.682Z,95153.00
2023-06-07T09:14:41.661Z,95149.00
2023-06-07T09:15:41.849Z,95151.00
2023-06-07T09:16:41.725Z,95151.00
2023-06-07T09:17:41.711Z,95145.00
2023-06-07T09:18:42.051Z,95145.00
2023-06-07T09:19:41.799Z,95145.00
2023-06-07T09:20:41.650Z,95149.00
2023-06-07T09:21:41.676Z,95147.00
2023-06-07T09:22:41.525Z,95145.00
2023-06-07T09:23:41.432Z,95143.00
2023-06-07T09:24:41.394Z,95143.00
2023-06-07T09:25:41.366Z,95143.00
2023-06-07T09:26:41.338Z,95143.00
2023-06-07T09:27:41.336Z,95141.00
2023-06-07T09:28:41.273Z,95139.00
2023-06-07T09:29:41.291Z,95135.00
2023-06-07T09:30:41.271Z,95137.00
2023-06-07T09:31:41.747Z,95135.00
2023-06-07T09:32:42.315Z,95135.00
2023-06-07T09:33:41.180Z,95133.00
2023-06-07T09:34:41.142Z,95131.00
2023-06-07T09:35:41.128Z,95127.00
2023-06-07T09:36:49.111Z,95129.00
2023-06-07T09:37:41.324Z,95127.00
2023-06-07T09:38:41.171Z,95125.00
2023-06-07T09:39:41.070Z,95127.00
2023-06-07T09:40:41.043Z,95123.00
2023-06-07T09:41:41.174Z,95120.00
2023-06-07T09:42:40.982Z,95122.00
2023-06-07T09:43:40.967Z,95122.00
2023-06-07T09:44:40.923Z,95122.00
2023-06-07T09:45:40.892Z,95118.00
2023-06-07T09:46:41.172Z,95114.00
2023-06-07T09:47:48.114Z,95116.00
2023-06-07T09:48:40.943Z,95114.00
2023-06-07T09:49:40.823Z,95118.00
2023-06-07T09:50:40.787Z,95116.00
2023-06-07T09:51:41.162Z,95116.00
2023-06-07T09:52:40.860Z,95118.00
2023-06-07T09:54:12.573Z,95118.00
2023-06-07T09:54:41.740Z,95116.00
2023-06-07T09:55:40.719Z,95114.00
2023-06-07T09:56:42.190Z,95110.00
2023-06-07T09:57:40.753Z,95112.00
2023-06-07T09:58:40.826Z,95112.00
2023-06-07T09:59:40.767Z,95106.00
2023-06-07T10:00:41.197Z,95106.00
2023-06-07T10:01:40.925Z,95104.00
2023-06-07T10:02:40.865Z,95106.00
2023-06-07T10:03:41.067Z,95102.00
2023-06-07T10:04:40.884Z,95100.00
2023-06-07T10:05:56.484Z,95100.00
2023-06-07T10:06:44.483Z,95100.00
2023-06-07T10:07:40.885Z,95096.00
2023-06-07T10:08:40.758Z,95094.00
2023-06-07T10:09:41.780Z,95094.00
2023-06-07T10:10:41.159Z,95094.00
2023-06-07T10:11:41.183Z,95092.00
2023-06-07T10:12:41.023Z,95090.00
2023-06-07T10:13:40.871Z,95086.00
2023-06-07T10:14:40.871Z,95088.00
2023-06-07T10:15:40.532Z,95084.00
2023-06-07T10:16:40.716Z,95082.00
2023-06-07T10:17:40.500Z,95084.00
2023-06-07T10:18:40.850Z,95084.00
2023-06-07T10:19:40.447Z,95082.00
2023-06-07T10:20:40.398Z,95080.00
2023-06-07T10:21:40.806Z,95084.00
2023-06-07T10:22:40.410Z,95080.00
2023-06-07T10:23:40.579Z,95082.00
2023-06-07T10:24:40.572Z,95080.00
2023-06-07T10:25:40.428Z,95076.00
2023-06-07T10:26:40.684Z,95075.00
2023-06-07T10:27:40.666Z,95075.00
2023-06-07T10:28:41.478Z,95075.00
2023-06-07T10:29:40.418Z,95069.00
2023-06-07T10:30:40.420Z,95069.00
2023-06-07T10:31:40.941Z,95067.00
2023-06-07T10:32:40.466Z,95067.00
2023-06-07T10:33:40.493Z,95067.00
2023-06-07T10:34:40.410Z,95065.00
2023-06-07T10:35:40.585Z,95065.00
2023-06-07T10:36:40.736Z,95063.00
2023-06-07T10:37:40.413Z,95061.00
2023-06-07T10:38:40.440Z,95059.00
2023-06-07T10:39:40.434Z,95057.00
2023-06-07T10:40:40.378Z,95061.00
2023-06-07T10:41:40.671Z,95061.00
2023-06-07T10:42:40.358Z,95059.00
2023-06-07T10:43:40.335Z,95057.00
2023-06-07T10:44:40.305Z,95055.00
2023-06-07T10:45:40.291Z,95057.00
2023-06-07T10:46:40.374Z,95053.00
2023-06-07T10:47:40.305Z,95053.00
2023-06-07T10:48:40.305Z,95053.00
2023-06-07T10:49:40.299Z,95051.00
2023-06-07T10:50:40.199Z,95051.00
2023-06-07T10:51:40.762Z,95053.00
2023-06-07T10:52:40.171Z,95053.00
2023-06-07T10:53:40.146Z,95049.00
2023-06-07T10:54:40.172Z,95051.00
2023-06-07T10:55:40.142Z,95049.00
2023-06-07T10:56:40.168Z,95053.00
2023-06-07T10:57:40.090Z,95049.00
2023-06-07T10:58:40.057Z,95053.00
2023-06-07T10:59:40.036Z,95049.00
2023-06-07T11:00:40.005Z,95047.00
2023-06-07T11:01:40.041Z,95047.00
2023-06-07T11:02:40.116Z,95041.00
2023-06-07T11:03:40.145Z,95045.00
2023-06-07T11:04:40.081Z,95043.00
2023-06-07T11:05:40.344Z,95041.00
2023-06-07T11:06:40.266Z,95039.00
2023-06-07T11:07:39.906Z,95039.00
2023-06-07T11:08:39.883Z,95035.00
2023-06-07T11:09:39.903Z,95035.00
2023-06-07T11:10:39.930Z,95037.00
2023-06-07T11:11:40.198Z,95035.00
2023-06-07T11:12:39.884Z,95035.00
2023-06-07T11:13:40.194Z,95031.00
2023-06-07T11:14:39.866Z,95033.00
2023-06-07T11:15:39.872Z,95031.00
2023-06-07T11:16:40.249Z,95027.00
2023-06-07T11:17:39.923Z,95029.00
2023-06-07T11:18:39.880Z,95025.00
2023-06-07T11:19:39.884Z,95025.00
2023-06-07T11:20:39.924Z,95025.00
2023-06-07T11:21:40.196Z,95023.00
2023-06-07T11:22:39.898Z,95021.00
2023-06-07T11:23:39.987Z,95023.00
2023-06-07T11:24:40.082Z,95021.00
2023-06-07T11:25:39.913Z,95020.00
2023-06-07T11:26:39.989Z,95020.00
2023-06-07T11:27:39.891Z,95020.00
2023-06-07T11:28:40.106Z,95021.00
2023-06-07T11:29:39.896Z,95020.00
2023-06-07T11:30:39.887Z,95021.00
2023-06-07T11:31:39.917Z,95020.00
2023-06-07T11:32:40.009Z,95020.00
2023-06-07T11:33:39.925Z,95014.00
2023-06-07T11:34:39.927Z,95014.00
2023-06-07T11:35:39.899Z,95008.00
2023-06-07T11:36:39.950Z,95010.00
2023-06-07T11:37:39.893Z,95010.00
2023-06-07T11:38:39.920Z,95010.00
2023-06-07T11:39:39.943Z,95008.00
2023-06-07T11:40:39.901Z,95008.00
2023-06-07T11:41:40.200Z,95006.00
2023-06-07T11:42:39.892Z,95006.00
2023-06-07T11:43:39.896Z,95002.00
2023-06-07T11:44:39.915Z,95002.00
2023-06-07T11:45:39.898Z,95000.00
2023-06-07T11:46:40.295Z,94996.00
2023-06-07T11:47:39.992Z,95000.00
2023-06-07T11:48:39.950Z,94996.00
2023-06-07T11:49:39.997Z,94998.00